createdAt,value
2023-01-29T00:02:37.823Z,23.90
2023-01-29T00:07:40.812Z,20.10
2023-01-29T00:12:43.757Z,17.10
2023-01-29T00:17:46.750Z,14.10
2023-01-29T00:22:49.889Z,15.00
2023-01-29T00:27:52.848Z,12.30
2023-01-29T00:32:55.804Z,14.60
2023-01-29T00:37:59.422Z,12.70
2023-01-29T00:43:20.728Z,16.30
2023-01-29T00:48:23.674Z,15.40
2023-01-29T00:53:26.651Z,14.20
2023-01-29T00:58:34.467Z,15.40
2023-01-29T01:03:42.205Z,16.30
2023-01-29T01:09:04.184Z,18.30
2023-01-29T01:14:07.202Z,18.90
2023-01-29T01:19:10.701Z,19.90
2023-01-29T01:24:13.800Z,14.20
2023-01-29T01:29:16.804Z,15.70
2023-01-29T01:34:20.131Z,18.20
2023-01-29T01:39:25.079Z,12.80
2023-01-29T01:44:58.504Z,16.60
2023-01-29T01:50:33.554Z,14.90
2023-01-29T01:55:45.236Z,16.20
2023-01-29T02:00:48.545Z,14.00
2023-01-29T02:06:12.969Z,13.80
2023-01-29T02:11:17.239Z,15.60
2023-01-29T02:16:22.754Z,13.70
2023-01-29T02:22:04.845Z,16.00
2023-01-29T02:27:32.971Z,16.30
2023-01-29T02:32:58.767Z,15.30
2023-01-29T02:38:01.770Z,18.10
2023-01-29T02:43:30.254Z,17.70
2023-01-29T02:48:47.914Z,19.60
2023-01-29T02:54:44.052Z,16.10
2023-01-29T03:00:39.135Z,12.20
2023-01-29T03:05:57.217Z,14.90
2023-01-29T03:11:05.789Z,15.20
2023-01-29T03:16:41.159Z,16.20
2023-01-29T03:21:51.336Z,17.40
2023-01-29T03:27:12.690Z,14.40
2023-01-29T03:32:17.529Z,14.70
2023-01-29T03:37:44.536Z,13.20
2023-01-29T03:43:04.995Z,12.50
2023-01-29T03:48:35.690Z,13.60
2023-01-29T03:53:44.119Z,12.70
2023-01-29T03:58:59.717Z,13.20
2023-01-29T04:04:23.762Z,12.30
2023-01-29T04:09:37.981Z,12.90
2023-01-29T04:14:41.526Z,10.90
2023-01-29T04:19:45.048Z,12.30
2023-01-29T04:24:49.766Z,10.50
2023-01-29T04:30:01.713Z,10.40
2023-01-29T04:35:10.635Z,12.00
2023-01-29T04:40:39.055Z,12.50
2023-01-29T04:46:10.491Z,12.00
2023-01-29T04:51:32.644Z,11.20
2023-01-29T04:57:02.840Z,11.90
2023-01-29T05:02:08.309Z,11.50
2023-01-29T05:07:15.389Z,12.40
2023-01-29T05:12:19.095Z,11.80
2023-01-29T05:17:22.178Z,8.90
2023-01-29T05:22:26.756Z,9.70
2023-01-29T05:27:54.248Z,8.70
2023-01-29T05:32:57.240Z,9.30
2023-01-29T05:38:00.176Z,10.60
2023-01-29T05:43:03.379Z,24.20
2023-01-29T05:48:06.357Z,12.00
2023-01-29T05:53:09.567Z,11.50
2023-01-29T05:58:13.010Z,10.70
2023-01-29T06:03:15.996Z,39.80
2023-01-29T06:08:18.990Z,17.00
2023-01-29T06:13:23.650Z,10.10
2023-01-29T06:18:26.823Z,15.50
2023-01-29T06:23:30.349Z,12.80
2023-01-29T06:28:33.667Z,13.90
2023-01-29T06:33:36.596Z,15.30
2023-01-29T06:38:39.522Z,39.90
2023-01-29T06:43:45.305Z,20.50
2023-01-29T06:48:48.305Z,17.30
2023-01-29T06:53:51.284Z,12.80
2023-01-29T06:58:54.381Z,11.10
2023-01-29T07:03:57.334Z,13.70
2023-01-29T07:09:00.337Z,14.80
2023-01-29T07:14:03.572Z,14.60
2023-01-29T07:19:06.504Z,12.70
2023-01-29T07:24:09.604Z,11.70
2023-01-29T07:29:12.596Z,33.70
2023-01-29T07:34:15.562Z,56.20
2023-01-29T07:39:18.583Z,51.80
2023-01-29T07:44:21.551Z,1058.40
2023-01-29T07:49:24.569Z,1407.90
2023-01-29T07:54:27.532Z,182.20
2023-01-29T07:59:30.619Z,38.30
2023-01-29T08:04:33.545Z,102.20
2023-01-29T08:09:36.663Z,30.90
2023-01-29T08:14:40.572Z,22.30
2023-01-29T08:19:43.531Z,101.10
2023-01-29T08:24:54.120Z,19.60
2023-01-29T08:30:03.949Z,20.20
2023-01-29T08:40:13.887Z,25.40
2023-01-29T08:45:17.058Z,15.60
2023-01-29T08:50:20.233Z,16.10
2023-01-29T08:55:23.332Z,16.90
2023-01-29T09:00:29.157Z,23.40
2023-01-29T09:05:32.094Z,31.90
2023-01-29T09:10:35.969Z,16.70
2023-01-29T09:15:38.939Z,27.00
2023-01-29T09:20:41.912Z,22.60
2023-01-29T09:25:44.986Z,53.30
2023-01-29T09:30:48.109Z,15.90
2023-01-29T09:35:51.162Z,21.60
2023-01-29T09:41:18.795Z,603.90
2023-01-29T09:46:46.645Z,1254.90
2023-01-29T09:51:56.382Z,41.50
2023-01-29T09:57:00.848Z,59.80
2023-01-29T10:02:50.731Z,366.80
2023-01-29T10:08:33.981Z,223.40
2023-01-29T10:14:01.689Z,461.60
2023-01-29T10:19:54.007Z,165.30
2023-01-29T10:25:11.894Z,250.60
2023-01-29T10:30:40.349Z,220.50
2023-01-29T10:35:50.171Z,160.10
2023-01-29T10:41:08.268Z,22.20
2023-01-29T10:46:44.875Z,146.70
2023-01-29T10:52:31.803Z,17.50
2023-01-29T10:57:53.381Z,26.90
2023-01-29T11:02:56.482Z,25.50
2023-01-29T11:08:15.142Z,75.00
2023-01-29T11:13:20.915Z,18.60
2023-01-29T11:18:24.469Z,27.30
2023-01-29T11:23:32.263Z,16.90
2023-01-29T11:28:47.720Z,22.00
2023-01-29T11:33:54.320Z,20.80
2023-01-29T11:39:28.253Z,18.20
2023-01-29T11:44:42.412Z,16.00
2023-01-29T11:49:52.661Z,23.70
2023-01-29T11:55:26.382Z,20.20
2023-01-29T12:00:33.802Z,20.70
2023-01-29T12:05:40.439Z,20.60
2023-01-29T12:10:44.211Z,34.60
2023-01-29T12:15:49.317Z,311.80
2023-01-29T12:20:58.743Z,96.60
2023-01-29T12:26:18.038Z,26.30
2023-01-29T12:32:01.603Z,46.60
2023-01-29T12:37:46.154Z,29.60
2023-01-29T12:42:55.695Z,42.40
2023-01-29T12:48:19.459Z,53.10
2023-01-29T12:53:37.727Z,44.60
2023-01-29T12:58:49.667Z,60.00
2023-01-29T13:04:10.250Z,22.70
2023-01-29T13:09:23.194Z,47.20
2023-01-29T13:14:49.930Z,28.80
2023-01-29T13:19:58.198Z,34.60
2023-01-29T13:25:05.767Z,43.10
2023-01-29T13:30:28.237Z,24.10
2023-01-29T13:35:31.359Z,77.70
2023-01-29T13:40:36.986Z,24.60
2023-01-29T13:45:45.338Z,23.10
2023-01-29T13:50:51.028Z,26.20
2023-01-29T13:55:54.061Z,20.40
2023-01-29T14:00:58.064Z,26.70
2023-01-29T14:11:16.477Z,19.50
2023-01-29T14:16:19.409Z,491.20
2023-01-29T14:21:28.494Z,1032.70
2023-01-29T14:26:45.700Z,653.80
2023-01-29T14:31:58.489Z,163.30
2023-01-29T14:37:31.708Z,326.50
2023-01-29T14:42:44.413Z,299.00
2023-01-29T14:47:47.312Z,91.30
2023-01-29T14:52:54.124Z,236.70
2023-01-29T14:57:58.432Z,132.90
2023-01-29T15:03:05.197Z,25.20
2023-01-29T15:09:00.353Z,38.20
2023-01-29T15:14:33.227Z,34.60
2023-01-29T15:19:48.573Z,44.30
2023-01-29T15:25:15.244Z,35.00
2023-01-29T15:30:22.822Z,27.70
2023-01-29T15:35:37.357Z,126.80
2023-01-29T15:40:40.487Z,29.50
2023-01-29T15:45:43.516Z,207.50
2023-01-29T15:50:46.761Z,160.90
2023-01-29T15:55:51.771Z,46.50
2023-01-29T16:00:57.766Z,121.60
2023-01-29T16:06:02.064Z,47.20
2023-01-29T16:11:07.780Z,52.90
2023-01-29T16:16:21.781Z,30.80
2023-01-29T16:21:38.704Z,61.00
2023-01-29T16:26:50.765Z,34.20
2023-01-29T16:32:00.728Z,46.40
2023-01-29T16:37:09.094Z,55.80
2023-01-29T16:42:20.102Z,53.20
2023-01-29T16:47:36.089Z,26.70
2023-01-29T16:52:39.034Z,30.90
2023-01-29T16:57:44.145Z,24.10
2023-01-29T17:02:47.968Z,30.70
2023-01-29T17:07:51.120Z,50.90
2023-01-29T17:13:08.245Z,28.20
2023-01-29T17:18:25.116Z,76.10
2023-01-29T17:23:28.255Z,518.80
2023-01-29T17:28:31.204Z,525.40
2023-01-29T17:33:41.991Z,158.90
2023-01-29T17:38:46.330Z,45.00
2023-01-29T17:43:49.277Z,107.60
2023-01-29T17:48:52.520Z,34.00
2023-01-29T17:53:55.486Z,52.90
2023-01-29T17:58:58.441Z,53.60
2023-01-29T18:04:01.590Z,28.70
2023-01-29T18:09:05.065Z,34.40
2023-01-29T18:14:13.643Z,23.20
2023-01-29T18:19:31.174Z,39.10
2023-01-29T18:24:36.233Z,65.90
2023-01-29T18:29:39.226Z,35.10
2023-01-29T18:34:42.202Z,48.80
2023-01-29T18:39:45.190Z,56.80
2023-01-29T18:44:48.958Z,30.60
2023-01-29T18:49:52.270Z,52.60
2023-01-29T18:54:55.651Z,23.50
2023-01-29T18:59:58.571Z,31.80
2023-01-29T19:05:01.748Z,30.40
2023-01-29T19:10:12.711Z,36.50
2023-01-29T19:15:20.658Z,27.00
2023-01-29T19:20:23.851Z,25.20
2023-01-29T19:25:27.222Z,28.20
2023-01-29T19:30:30.273Z,27.60
2023-01-29T19:35:33.627Z,32.90
2023-01-29T19:40:38.982Z,28.20
2023-01-29T19:45:49.420Z,28.90
2023-01-29T19:50:59.765Z,25.60
2023-01-29T19:56:10.112Z,25.70
2023-01-29T20:01:20.287Z,236.50
2023-01-29T20:06:27.261Z,36.60
2023-01-29T20:11:31.214Z,45.60
2023-01-29T20:21:39.176Z,45.80
2023-01-29T20:26:43.188Z,70.00
2023-01-29T20:31:46.176Z,63.60
2023-01-29T20:36:49.186Z,67.60
2023-01-29T20:41:52.215Z,45.90
2023-01-29T20:46:55.215Z,42.20
2023-01-29T20:51:58.268Z,45.10
2023-01-29T20:57:01.223Z,54.40
2023-01-29T21:02:04.349Z,786.10
2023-01-29T21:07:07.349Z,1091.50
2023-01-29T21:12:11.486Z,1397.60
2023-01-29T21:17:14.429Z,1271.70
2023-01-29T21:22:17.478Z,847.60
2023-01-29T21:27:20.434Z,386.30
2023-01-29T21:32:23.439Z,224.30
2023-01-29T21:37:26.791Z,203.30
2023-01-29T21:42:48.444Z,85.80
2023-01-29T21:47:51.464Z,49.10
2023-01-29T21:52:54.425Z,39.30
2023-01-29T21:57:57.387Z,33.00
2023-01-29T22:03:00.548Z,68.90
2023-01-29T22:08:04.954Z,33.40
2023-01-29T22:13:08.024Z,28.50
2023-01-29T22:18:11.010Z,36.30
2023-01-29T22:23:14.096Z,31.60
2023-01-29T22:28:18.582Z,33.20
2023-01-29T22:33:21.571Z,35.10
2023-01-29T22:38:25.007Z,30.50
2023-01-29T22:43:29.336Z,26.00
2023-01-29T22:48:32.395Z,28.40
2023-01-29T22:53:54.241Z,25.00
2023-01-29T22:59:02.792Z,26.90
2023-01-29T23:04:05.805Z,24.80
2023-01-29T23:09:08.922Z,25.60
2023-01-29T23:14:11.865Z,27.60
2023-01-29T23:19:14.884Z,24.20
2023-01-29T23:24:17.831Z,23.90
2023-01-29T23:29:20.874Z,23.20
2023-01-29T23:34:24.060Z,22.30
2023-01-29T23:39:27.037Z,22.80
2023-01-29T23:44:30.039Z,22.50
2023-01-29T23:49:33.024Z,22.90
2023-01-29T23:54:36.008Z,21.60
2023-01-29T23:59:39.019Z,20.00
